sensor_id;sensor_type;location;lat;lon;timestamp;temperature;humidity
46037;DHT22;31769;49.304;8.428;2022-10-20T02:07:11;12.30;99.90
46037;DHT22;31769;49.304;8.428;2022-10-20T02:10:20;12.40;99.90
46037;DHT22;31769;49.304;8.428;2022-10-20T02:13:22;12.40;99.90
46037;DHT22;31769;49.304;8.428;2022-10-20T02:16:29;12.30;99.90
46037;DHT22;31769;49.304;8.428;2022-10-20T02:19:34;12.40;99.90
46037;DHT22;31769;49.304;8.428;2022-10-20T02:22:36;12.40;99.90
46037;DHT22;31769;49.304;8.428;2022-10-20T02:25:39;12.50;99.90
46037;DHT22;31769;49.304;8.428;2022-10-20T02:28:45;12.50;99.90
46037;DHT22;31769;49.304;8.428;2022-10-20T02:31:47;12.40;99.90
46037;DHT22;31769;49.304;8.428;2022-10-20T02:34:48;12.80;99.90
46037;DHT22;31769;49.304;8.428;2022-10-20T02:37:49;12.60;99.90
46037;DHT22;31769;49.304;8.428;2022-10-20T02:40:50;12.40;99.90
46037;DHT22;31769;49.304;8.428;2022-10-20T02:43:51;12.50;99.90
46037;DHT22;31769;49.304;8.428;2022-10-20T02:46:51;12.50;99.90
46037;DHT22;31769;49.304;8.428;2022-10-20T02:49:52;12.50;99.90
46037;DHT22;31769;49.304;8.428;2022-10-20T02:52:53;12.50;99.90
46037;DHT22;31769;49.304;8.428;2022-10-20T02:55:53;12.50;99.90
46037;DHT22;31769;49.304;8.428;2022-10-20T02:58:54;12.60;99.90
46037;DHT22;31769;49.304;8.428;2022-10-20T03:01:55;12.40;99.90
46037;DHT22;31769;49.304;8.428;2022-10-20T03:04:55;12.50;99.90
46037;DHT22;31769;49.304;8.428;2022-10-20T03:07:56;12.40;99.90
46037;DHT22;31769;49.304;8.428;2022-10-20T03:10:57;12.40;99.90
46037;DHT22;31769;49.304;8.428;2022-10-20T03:13:57;13.00;99.90
46037;DHT22;31769;49.304;8.428;2022-10-20T03:16:58;12.60;99.90
46037;DHT22;31769;49.304;8.428;2022-10-20T03:19:58;12.40;99.90
46037;DHT22;31769;49.304;8.428;2022-10-20T03:22:59;12.40;99.90
46037;DHT22;31769;49.304;8.428;2022-10-20T03:26:04;12.10;99.90
46037;DHT22;31769;49.304;8.428;2022-10-20T03:29:05;12.40;99.90
46037;DHT22;31769;49.304;8.428;2022-10-20T03:32:06;12.40;99.90
46037;DHT22;31769;49.304;8.428;2022-10-20T03:35:07;12.40;99.90
46037;DHT22;31769;49.304;8.428;2022-10-20T03:38:07;12.40;99.90
46037;DHT22;31769;49.304;8.428;2022-10-20T03:41:09;13.00;99.90
46037;DHT22;31769;49.304;8.428;2022-10-20T03:44:10;12.40;99.90
46037;DHT22;31769;49.304;8.428;2022-10-20T03:47:12;12.40;99.90
46037;DHT22;31769;49.304;8.428;2022-10-20T03:50:12;12.40;99.90
46037;DHT22;31769;49.304;8.428;2022-10-20T03:53:13;12.40;99.90
46037;DHT22;31769;49.304;8.428;2022-10-20T03:56:18;12.40;99.90
46037;DHT22;31769;49.304;8.428;2022-10-20T03:59:19;12.40;99.90
46037;DHT22;31769;49.304;8.428;2022-10-20T04:02:34;12.40;99.90
46037;DHT22;31769;49.304;8.428;2022-10-20T04:05:36;12.50;99.90
46037;DHT22;31769;49.304;8.428;2022-10-20T04:08:36;12.50;99.90
46037;DHT22;31769;49.304;8.428;2022-10-20T04:11:37;12.50;99.90
46037;DHT22;31769;49.304;8.428;2022-10-20T04:14:38;12.50;99.90
46037;DHT22;31769;49.304;8.428;2022-10-20T04:17:40;12.50;99.90
46037;DHT22;31769;49.304;8.428;2022-10-20T04:20:41;12.50;99.90
46037;DHT22;31769;49.304;8.428;2022-10-20T04:23:41;12.50;99.90
46037;DHT22;31769;49.304;8.428;2022-10-20T04:26:42;12.50;99.90
46037;DHT22;31769;49.304;8.428;2022-10-20T04:29:43;12.50;99.90
46037;DHT22;31769;49.304;8.428;2022-10-20T04:32:43;12.50;99.90
46037;DHT22;31769;49.304;8.428;2022-10-20T04:35:44;12.50;99.90
46037;DHT22;31769;49.304;8.428;2022-10-20T04:38:45;12.50;99.90
46037;DHT22;31769;49.304;8.428;2022-10-20T04:41:45;12.50;99.90
46037;DHT22;31769;49.304;8.428;2022-10-20T04:44:46;12.50;99.90
46037;DHT22;31769;49.304;8.428;2022-10-20T04:47:47;12.40;99.90
46037;DHT22;31769;49.304;8.428;2022-10-20T04:50:47;12.40;99.90
46037;DHT22;31769;49.304;8.428;2022-10-20T04:53:58;12.40;99.90
46037;DHT22;31769;49.304;8.428;2022-10-20T04:56:59;12.40;99.90
46037;DHT22;31769;49.304;8.428;2022-10-20T04:59:59;12.40;99.90
46037;DHT22;31769;49.304;8.428;2022-10-20T05:03:00;12.40;99.90
46037;DHT22;31769;49.304;8.428;2022-10-20T05:09:12;12.30;99.90
46037;DHT22;31769;49.304;8.428;2022-10-20T05:12:13;12.30;99.90
46037;DHT22;31769;49.304;8.428;2022-10-20T05:15:14;12.30;99.90
46037;DHT22;31769;49.304;8.428;2022-10-20T05:18:14;12.30;99.90
46037;DHT22;31769;49.304;8.428;2022-10-20T05:21:18;12.30;99.90
46037;DHT22;31769;49.304;8.428;2022-10-20T05:24:18;12.30;99.90
46037;DHT22;31769;49.304;8.428;2022-10-20T05:27:19;12.20;99.90
46037;DHT22;31769;49.304;8.428;2022-10-20T05:30:20;12.20;99.90
46037;DHT22;31769;49.304;8.428;2022-10-20T05:33:20;12.20;99.90
46037;DHT22;31769;49.304;8.428;2022-10-20T05:36:24;12.20;99.90
46037;DHT22;31769;49.304;8.428;2022-10-20T05:39:25;12.20;99.90
46037;DHT22;31769;49.304;8.428;2022-10-20T05:42:25;12.20;99.90
46037;DHT22;31769;49.304;8.428;2022-10-20T05:45:26;12.10;99.90
46037;DHT22;31769;49.304;8.428;2022-10-20T05:48:27;12.10;99.90
46037;DHT22;31769;49.304;8.428;2022-10-20T05:51:30;12.10;99.90
46037;DHT22;31769;49.304;8.428;2022-10-20T05:54:31;12.10;99.90
46037;DHT22;31769;49.304;8.428;2022-10-20T05:57:32;12.10;99.90
46037;DHT22;31769;49.304;8.428;2022-10-20T06:00:32;12.10;99.90
46037;DHT22;31769;49.304;8.428;2022-10-20T06:03:40;12.10;99.90
46037;DHT22;31769;49.304;8.428;2022-10-20T06:06:41;12.00;99.90
46037;DHT22;31769;49.304;8.428;2022-10-20T06:09:43;12.10;99.90
46037;DHT22;31769;49.304;8.428;2022-10-20T06:12:44;12.10;99.90
46037;DHT22;31769;49.304;8.428;2022-10-20T06:15:44;12.10;99.90
46037;DHT22;31769;49.304;8.428;2022-10-20T06:18:47;12.10;99.90
46037;DHT22;31769;49.304;8.428;2022-10-20T06:21:47;12.10;99.90
46037;DHT22;31769;49.304;8.428;2022-10-20T06:24:48;12.10;99.90
46037;DHT22;31769;49.304;8.428;2022-10-20T06:27:48;12.20;99.90
46037;DHT22;31769;49.304;8.428;2022-10-20T06:30:49;12.20;99.90
46037;DHT22;31769;49.304;8.428;2022-10-20T06:33:50;12.30;99.90
46037;DHT22;31769;49.304;8.428;2022-10-20T06:36:52;12.40;99.90
46037;DHT22;31769;49.304;8.428;2022-10-20T06:39:52;12.40;99.90
46037;DHT22;31769;49.304;8.428;2022-10-20T06:42:53;12.50;99.90
46037;DHT22;31769;49.304;8.428;2022-10-20T06:45:55;12.50;99.90
46037;DHT22;31769;49.304;8.428;2022-10-20T06:49:06;12.60;99.90
46037;DHT22;31769;49.304;8.428;2022-10-20T06:52:07;12.70;99.90
46037;DHT22;31769;49.304;8.428;2022-10-20T06:55:08;12.80;99.90
46037;DHT22;31769;49.304;8.428;2022-10-20T06:58:08;12.90;99.90
46037;DHT22;31769;49.304;8.428;2022-10-20T07:01:19;12.90;99.90
46037;DHT22;31769;49.304;8.428;2022-10-20T07:04:20;12.90;99.90
46037;DHT22;31769;49.304;8.428;2022-10-20T07:07:21;13.00;99.90
46037;DHT22;31769;49.304;8.428;2022-10-20T07:10:21;13.10;99.90
46037;DHT22;31769;49.304;8.428;2022-10-20T07:13:22;13.20;99.90
46037;DHT22;31769;49.304;8.428;2022-10-20T07:16:24;13.30;99.90
46037;DHT22;31769;49.304;8.428;2022-10-20T07:19:25;13.40;99.90
46037;DHT22;31769;49.304;8.428;2022-10-20T07:22:26;13.40;99.90
46037;DHT22;31769;49.304;8.428;2022-10-20T07:25:27;13.50;99.90
46037;DHT22;31769;49.304;8.428;2022-10-20T07:28:28;13.60;99.90
46037;DHT22;31769;49.304;8.428;2022-10-20T07:31:35;13.70;99.90
46037;DHT22;31769;49.304;8.428;2022-10-20T07:34:36;13.80;99.90
46037;DHT22;31769;49.304;8.428;2022-10-20T07:37:36;13.90;99.90
46037;DHT22;31769;49.304;8.428;2022-10-20T07:40:37;13.90;99.90
46037;DHT22;31769;49.304;8.428;2022-10-20T07:43:38;14.10;99.90
46037;DHT22;31769;49.304;8.428;2022-10-20T07:46:39;14.20;99.90
46037;DHT22;31769;49.304;8.428;2022-10-20T07:49:40;14.30;99.90
46037;DHT22;31769;49.304;8.428;2022-10-20T07:52:40;14.40;99.90
46037;DHT22;31769;49.304;8.428;2022-10-20T07:55:41;14.60;99.90
46037;DHT22;31769;49.304;8.428;2022-10-20T07:58:42;14.80;99.90
46037;DHT22;31769;49.304;8.428;2022-10-20T08:01:42;14.80;99.90
46037;DHT22;31769;49.304;8.428;2022-10-20T08:04:43;15.00;99.90
46037;DHT22;31769;49.304;8.428;2022-10-20T08:07:45;15.10;99.90
46037;DHT22;31769;49.304;8.428;2022-10-20T08:10:45;15.20;99.90
46037;DHT22;31769;49.304;8.428;2022-10-20T08:13:46;15.30;99.90
46037;DHT22;31769;49.304;8.428;2022-10-20T08:16:46;15.30;99.90
46037;DHT22;31769;49.304;8.428;2022-10-20T08:19:47;15.40;99.90
46037;DHT22;31769;49.304;8.428;2022-10-20T08:22:48;15.40;99.90
46037;DHT22;31769;49.304;8.428;2022-10-20T08:25:55;15.60;99.90
46037;DHT22;31769;49.304;8.428;2022-10-20T08:28:56;15.70;99.90
46037;DHT22;31769;49.304;8.428;2022-10-20T08:31:56;15.80;99.90
46037;DHT22;31769;49.304;8.428;2022-10-20T08:34:57;15.90;99.90
46037;DHT22;31769;49.304;8.428;2022-10-20T08:37:58;16.00;99.90
46037;DHT22;31769;49.304;8.428;2022-10-20T08:41:00;16.10;99.90
46037;DHT22;31769;49.304;8.428;2022-10-20T08:44:02;16.30;99.90
46037;DHT22;31769;49.304;8.428;2022-10-20T08:47:15;16.40;99.90
46037;DHT22;31769;49.304;8.428;2022-10-20T08:50:18;16.60;99.90
46037;DHT22;31769;49.304;8.428;2022-10-20T08:53:21;16.70;99.90
46037;DHT22;31769;49.304;8.428;2022-10-20T08:56:28;17.00;99.90
46037;DHT22;31769;49.304;8.428;2022-10-20T08:59:34;17.10;99.90
46037;DHT22;31769;49.304;8.428;2022-10-20T09:02:36;17.30;99.90
46037;DHT22;31769;49.304;8.428;2022-10-20T09:05:40;17.30;99.90
46037;DHT22;31769;49.304;8.428;2022-10-20T09:08:42;17.40;99.90
46037;DHT22;31769;49.304;8.428;2022-10-20T09:11:44;17.40;99.90
46037;DHT22;31769;49.304;8.428;2022-10-20T09:14:44;17.40;99.90
46037;DHT22;31769;49.304;8.428;2022-10-20T09:17:50;17.50;99.90
46037;DHT22;31769;49.304;8.428;2022-10-20T09:20:56;17.50;99.90
46037;DHT22;31769;49.304;8.428;2022-10-20T09:24:03;17.50;99.90
46037;DHT22;31769;49.304;8.428;2022-10-20T09:27:36;17.50;99.90
46037;DHT22;31769;49.304;8.428;2022-10-20T09:30:39;17.60;99.90
46037;DHT22;31769;49.304;8.428;2022-10-20T09:33:39;17.70;99.90
46037;DHT22;31769;49.304;8.428;2022-10-20T09:36:40;17.70;99.90
46037;DHT22;31769;49.304;8.428;2022-10-20T09:39:51;17.80;99.90
46037;DHT22;31769;49.304;8.428;2022-10-20T09:42:56;17.90;99.90
46037;DHT22;31769;49.304;8.428;2022-10-20T09:46:03;17.90;99.90
46037;DHT22;31769;49.304;8.428;2022-10-20T09:49:05;18.00;99.90
46037;DHT22;31769;49.304;8.428;2022-10-20T09:52:20;18.20;99.90
46037;DHT22;31769;49.304;8.428;2022-10-20T09:55:24;18.40;99.90
46037;DHT22;31769;49.304;8.428;2022-10-20T09:58:31;18.70;99.90
46037;DHT22;31769;49.304;8.428;2022-10-20T10:01:32;18.90;99.90
46037;DHT22;31769;49.304;8.428;2022-10-20T10:04:38;19.00;99.90
46037;DHT22;31769;49.304;8.428;2022-10-20T10:07:39;19.20;99.90
46037;DHT22;31769;49.304;8.428;2022-10-20T10:10:42;19.30;99.90
46037;DHT22;31769;49.304;8.428;2022-10-20T10:13:46;19.30;99.90
46037;DHT22;31769;49.304;8.428;2022-10-20T10:16:47;19.30;99.90
46037;DHT22;31769;49.304;8.428;2022-10-20T10:19:48;19.40;99.90
46037;DHT22;31769;49.304;8.428;2022-10-20T10:22:48;19.50;99.90
46037;DHT22;31769;49.304;8.428;2022-10-20T10:25:50;19.50;99.90
46037;DHT22;31769;49.304;8.428;2022-10-20T10:28:57;19.50;99.90
46037;DHT22;31769;49.304;8.428;2022-10-20T10:32:01;19.60;99.90
46037;DHT22;31769;49.304;8.428;2022-10-20T10:35:25;19.90;99.90
46037;DHT22;31769;49.304;8.428;2022-10-20T10:38:28;20.10;99.90
46037;DHT22;31769;49.304;8.428;2022-10-20T10:41:39;20.00;99.90
46037;DHT22;31769;49.304;8.428;2022-10-20T10:44:59;19.80;99.90
46037;DHT22;31769;49.304;8.428;2022-10-20T10:54:57;18.70;99.90
46037;DHT22;31769;49.304;8.428;2022-10-20T11:01:47;18.30;99.90
46037;DHT22;31769;49.304;8.428;2022-10-20T11:14:46;17.50;99.90
46037;DHT22;31769;49.304;8.428;2022-10-20T11:27:33;17.50;99.90
46037;DHT22;31769;49.304;8.428;2022-10-20T11:30:34;17.30;99.90
46037;DHT22;31769;49.304;8.428;2022-10-20T11:33:42;17.20;99.90
46037;DHT22;31769;49.304;8.428;2022-10-20T11:36:50;17.10;99.90
46037;DHT22;31769;49.304;8.428;2022-10-20T11:49:39;17.40;99.90
46037;DHT22;31769;49.304;8.428;2022-10-20T12:03:04;17.20;99.90
46037;DHT22;31769;49.304;8.428;2022-10-20T12:07:10;17.30;99.90
46037;DHT22;31769;49.304;8.428;2022-10-20T12:09:52;17.40;99.90
46037;DHT22;31769;49.304;8.428;2022-10-20T12:36:39;17.40;99.90
46037;DHT22;31769;49.304;8.428;2022-10-20T12:39:40;17.40;99.90
46037;DHT22;31769;49.304;8.428;2022-10-20T12:42:48;17.40;99.90
46037;DHT22;31769;49.304;8.428;2022-10-20T12:45:50;17.40;99.90
46037;DHT22;31769;49.304;8.428;2022-10-20T12:48:54;17.40;99.90
46037;DHT22;31769;49.304;8.428;2022-10-20T12:52:00;17.30;99.90
46037;DHT22;31769;49.304;8.428;2022-10-20T12:55:05;17.30;99.90
46037;DHT22;31769;49.304;8.428;2022-10-20T13:01:17;17.30;99.90
46037;DHT22;31769;49.304;8.428;2022-10-20T13:14:47;17.30;99.90
46037;DHT22;31769;49.304;8.428;2022-10-20T13:18:05;17.40;99.90
46037;DHT22;31769;49.304;8.428;2022-10-20T13:21:27;17.40;99.90
46037;DHT22;31769;49.304;8.428;2022-10-20T13:24:30;17.50;99.90
46037;DHT22;31769;49.304;8.428;2022-10-20T13:27:32;17.50;99.90
46037;DHT22;31769;49.304;8.428;2022-10-20T13:30:34;17.50;99.90
46037;DHT22;31769;49.304;8.428;2022-10-20T13:44:32;17.50;99.90
46037;DHT22;31769;49.304;8.428;2022-10-20T13:51:01;17.50;99.90
46037;DHT22;31769;49.304;8.428;2022-10-20T13:54:05;17.60;99.90
46037;DHT22;31769;49.304;8.428;2022-10-20T13:57:07;17.70;99.90
46037;DHT22;31769;49.304;8.428;2022-10-20T14:00:29;17.60;99.90
46037;DHT22;31769;49.304;8.428;2022-10-20T14:03:32;17.60;99.90
46037;DHT22;31769;49.304;8.428;2022-10-20T14:06:36;17.60;99.90
46037;DHT22;31769;49.304;8.428;2022-10-20T14:09:38;17.50;99.90
46037;DHT22;31769;49.304;8.428;2022-10-20T14:12:39;17.50;99.90
46037;DHT22;31769;49.304;8.428;2022-10-20T14:15:47;17.40;99.90
46037;DHT22;31769;49.304;8.428;2022-10-20T14:19:04;17.30;99.90
46037;DHT22;31769;49.304;8.428;2022-10-20T14:22:18;17.30;99.90
46037;DHT22;31769;49.304;8.428;2022-10-20T14:25:22;17.20;99.90
46037;DHT22;31769;49.304;8.428;2022-10-20T14:28:24;17.20;99.90
46037;DHT22;31769;49.304;8.428;2022-10-20T14:31:29;17.20;99.90
46037;DHT22;31769;49.304;8.428;2022-10-20T14:34:33;17.20;99.90
46037;DHT22;31769;49.304;8.428;2022-10-20T14:37:39;17.20;99.90
46037;DHT22;31769;49.304;8.428;2022-10-20T14:40:41;17.20;99.90
46037;DHT22;31769;49.304;8.428;2022-10-20T14:43:50;17.10;99.90
46037;DHT22;31769;49.304;8.428;2022-10-20T14:46:59;17.10;99.90
46037;DHT22;31769;49.304;8.428;2022-10-20T14:50:04;17.10;99.90
46037;DHT22;31769;49.304;8.428;2022-10-20T14:53:33;17.10;99.90
46037;DHT22;31769;49.304;8.428;2022-10-20T14:56:42;17.10;99.90
46037;DHT22;31769;49.304;8.428;2022-10-20T14:59:55;17.10;99.90
46037;DHT22;31769;49.304;8.428;2022-10-20T15:03:05;17.00;99.90
46037;DHT22;31769;49.304;8.428;2022-10-20T15:06:09;17.00;99.90
46037;DHT22;31769;49.304;8.428;2022-10-20T15:09:26;17.00;99.90
46037;DHT22;31769;49.304;8.428;2022-10-20T15:12:42;17.00;99.90
46037;DHT22;31769;49.304;8.428;2022-10-20T15:15:43;17.00;99.90
46037;DHT22;31769;49.304;8.428;2022-10-20T15:18:44;16.90;99.90
46037;DHT22;31769;49.304;8.428;2022-10-20T15:21:45;17.00;99.90
46037;DHT22;31769;49.304;8.428;2022-10-20T15:24:46;17.00;99.90
46037;DHT22;31769;49.304;8.428;2022-10-20T15:27:49;17.00;99.90
46037;DHT22;31769;49.304;8.428;2022-10-20T15:30:50;16.90;99.90
46037;DHT22;31769;49.304;8.428;2022-10-20T15:33:52;16.90;99.90
46037;DHT22;31769;49.304;8.428;2022-10-20T15:36:53;16.90;99.90
46037;DHT22;31769;49.304;8.428;2022-10-20T15:39:55;16.80;99.90
46037;DHT22;31769;49.304;8.428;2022-10-20T15:42:56;16.80;99.90
46037;DHT22;31769;49.304;8.428;2022-10-20T15:45:56;16.70;99.90
46037;DHT22;31769;49.304;8.428;2022-10-20T15:48:57;16.60;99.90
46037;DHT22;31769;49.304;8.428;2022-10-20T15:51:58;16.60;99.90
46037;DHT22;31769;49.304;8.428;2022-10-20T15:54:58;16.50;99.90
46037;DHT22;31769;49.304;8.428;2022-10-20T15:57:59;16.40;99.90
46037;DHT22;31769;49.304;8.428;2022-10-20T16:01:00;16.30;99.90
46037;DHT22;31769;49.304;8.428;2022-10-20T16:04:06;16.20;99.90
46037;DHT22;31769;49.304;8.428;2022-10-20T16:07:12;16.20;99.90
46037;DHT22;31769;49.304;8.428;2022-10-20T16:10:13;16.20;99.90
46037;DHT22;31769;49.304;8.428;2022-10-20T16:13:13;16.20;99.90
46037;DHT22;31769;49.304;8.428;2022-10-20T16:16:17;16.30;99.90
46037;DHT22;31769;49.304;8.428;2022-10-20T16:19:18;16.20;99.90
46037;DHT22;31769;49.304;8.428;2022-10-20T16:22:19;16.20;99.90
46037;DHT22;31769;49.304;8.428;2022-10-20T16:25:20;16.20;99.90
46037;DHT22;31769;49.304;8.428;2022-10-20T16:28:21;16.20;99.90
46037;DHT22;31769;49.304;8.428;2022-10-20T16:31:21;16.20;99.90
46037;DHT22;31769;49.304;8.428;2022-10-20T16:34:22;16.10;99.90
46037;DHT22;31769;49.304;8.428;2022-10-20T16:37:24;16.10;99.90
46037;DHT22;31769;49.304;8.428;2022-10-20T16:40:25;16.00;99.90
46037;DHT22;31769;49.304;8.428;2022-10-20T16:43:26;16.00;99.90
46037;DHT22;31769;49.304;8.428;2022-10-20T16:46:27;16.00;99.90
46037;DHT22;31769;49.304;8.428;2022-10-20T16:49:28;15.90;99.90
46037;DHT22;31769;49.304;8.428;2022-10-20T16:52:29;15.90;99.90
46037;DHT22;31769;49.304;8.428;2022-10-20T16:55:29;15.90;99.90
46037;DHT22;31769;49.304;8.428;2022-10-20T16:58:30;15.90;99.90
46037;DHT22;31769;49.304;8.428;2022-10-20T17:01:30;15.80;99.90
46037;DHT22;31769;49.304;8.428;2022-10-20T17:04:31;15.80;99.90
46037;DHT22;31769;49.304;8.428;2022-10-20T17:07:32;15.80;99.90
46037;DHT22;31769;49.304;8.428;2022-10-20T17:10:32;15.80;99.90
46037;DHT22;31769;49.304;8.428;2022-10-20T17:13:35;15.70;99.90
46037;DHT22;31769;49.304;8.428;2022-10-20T17:16:35;15.70;99.90
46037;DHT22;31769;49.304;8.428;2022-10-20T17:19:39;15.70;99.90
46037;DHT22;31769;49.304;8.428;2022-10-20T17:22:40;15.60;99.90
46037;DHT22;31769;49.304;8.428;2022-10-20T17:25:41;15.60;99.90
46037;DHT22;31769;49.304;8.428;2022-10-20T17:28:42;15.50;99.90
46037;DHT22;31769;49.304;8.428;2022-10-20T17:31:43;15.40;99.90
46037;DHT22;31769;49.304;8.428;2022-10-20T17:34:44;15.40;99.90
46037;DHT22;31769;49.304;8.428;2022-10-20T17:37:44;15.30;99.90
46037;DHT22;31769;49.304;8.428;2022-10-20T17:40:45;15.30;99.90
46037;DHT22;31769;49.304;8.428;2022-10-20T17:43:46;15.30;99.90
46037;DHT22;31769;49.304;8.428;2022-10-20T17:46:46;15.30;99.90
46037;DHT22;31769;49.304;8.428;2022-10-20T17:49:47;15.30;99.90
46037;DHT22;31769;49.304;8.428;2022-10-20T17:52:47;15.30;99.90
46037;DHT22;31769;49.304;8.428;2022-10-20T17:55:48;15.20;99.90
46037;DHT22;31769;49.304;8.428;2022-10-20T17:58:50;15.20;99.90
46037;DHT22;31769;49.304;8.428;2022-10-20T18:01:51;15.10;99.90
46037;DHT22;31769;49.304;8.428;2022-10-20T18:04:51;15.00;99.90
46037;DHT22;31769;49.304;8.428;2022-10-20T18:07:52;15.10;99.90
46037;DHT22;31769;49.304;8.428;2022-10-20T18:10:52;15.00;99.90
46037;DHT22;31769;49.304;8.428;2022-10-20T18:13:54;15.10;99.90
46037;DHT22;31769;49.304;8.428;2022-10-20T18:16:56;15.10;99.90
46037;DHT22;31769;49.304;8.428;2022-10-20T18:19:57;15.10;99.90
46037;DHT22;31769;49.304;8.428;2022-10-20T18:22:59;15.10;99.90
46037;DHT22;31769;49.304;8.428;2022-10-20T18:26:22;15.20;99.90
46037;DHT22;31769;49.304;8.428;2022-10-20T18:29:23;15.10;99.90
46037;DHT22;31769;49.304;8.428;2022-10-20T18:32:25;15.10;99.90
46037;DHT22;31769;49.304;8.428;2022-10-20T18:35:27;15.10;99.90
46037;DHT22;31769;49.304;8.428;2022-10-20T18:38:28;15.10;99.90
46037;DHT22;31769;49.304;8.428;2022-10-20T18:41:33;15.00;99.90
46037;DHT22;31769;49.304;8.428;2022-10-20T18:44:37;15.00;99.90
46037;DHT22;31769;49.304;8.428;2022-10-20T18:47:38;15.00;99.90
46037;DHT22;31769;49.304;8.428;2022-10-20T18:50:40;15.10;99.90
46037;DHT22;31769;49.304;8.428;2022-10-20T18:53:44;15.10;99.90
46037;DHT22;31769;49.304;8.428;2022-10-20T18:56:45;15.10;99.90
46037;DHT22;31769;49.304;8.428;2022-10-20T18:59:48;15.20;99.90
46037;DHT22;31769;49.304;8.428;2022-10-20T19:02:49;15.20;99.90
46037;DHT22;31769;49.304;8.428;2022-10-20T19:05:57;15.10;99.90
46037;DHT22;31769;49.304;8.428;2022-10-20T19:09:13;15.10;99.90
46037;DHT22;31769;49.304;8.428;2022-10-20T19:12:15;15.10;99.90
46037;DHT22;31769;49.304;8.428;2022-10-20T19:15:15;15.10;99.90
46037;DHT22;31769;49.304;8.428;2022-10-20T19:18:16;15.20;99.90
46037;DHT22;31769;49.304;8.428;2022-10-20T19:21:18;15.10;99.90
46037;DHT22;31769;49.304;8.428;2022-10-20T19:24:23;15.10;99.90
46037;DHT22;31769;49.304;8.428;2022-10-20T19:27:24;15.10;99.90
46037;DHT22;31769;49.304;8.428;2022-10-20T19:30:25;15.10;99.90
46037;DHT22;31769;49.304;8.428;2022-10-20T19:33:26;15.10;99.90
46037;DHT22;31769;49.304;8.428;2022-10-20T19:36:28;15.10;99.90
46037;DHT22;31769;49.304;8.428;2022-10-20T19:39:32;14.90;99.90
46037;DHT22;31769;49.304;8.428;2022-10-20T19:42:33;14.80;99.90
46037;DHT22;31769;49.304;8.428;2022-10-20T19:45:33;14.80;99.90
46037;DHT22;31769;49.304;8.428;2022-10-20T19:48:34;14.80;99.90
46037;DHT22;31769;49.304;8.428;2022-10-20T19:51:35;14.90;99.90
46037;DHT22;31769;49.304;8.428;2022-10-20T19:54:35;14.90;99.90
46037;DHT22;31769;49.304;8.428;2022-10-20T19:57:36;14.90;99.90
46037;DHT22;31769;49.304;8.428;2022-10-20T20:00:42;14.90;99.90
46037;DHT22;31769;49.304;8.428;2022-10-20T20:03:43;14.90;99.90
46037;DHT22;31769;49.304;8.428;2022-10-20T20:06:44;15.00;99.90
46037;DHT22;31769;49.304;8.428;2022-10-20T20:09:45;15.00;99.90
46037;DHT22;31769;49.304;8.428;2022-10-20T20:12:45;14.90;99.90
46037;DHT22;31769;49.304;8.428;2022-10-20T20:15:46;14.90;99.90
46037;DHT22;31769;49.304;8.428;2022-10-20T20:18:47;14.90;99.90
46037;DHT22;31769;49.304;8.428;2022-10-20T20:21:48;15.00;99.90
46037;DHT22;31769;49.304;8.428;2022-10-20T20:24:49;15.00;99.90
46037;DHT22;31769;49.304;8.428;2022-10-20T20:27:52;14.90;99.90
46037;DHT22;31769;49.304;8.428;2022-10-20T20:31:01;14.90;99.90
46037;DHT22;31769;49.304;8.428;2022-10-20T20:34:02;14.90;99.90
46037;DHT22;31769;49.304;8.428;2022-10-20T20:37:02;14.90;99.90
46037;DHT22;31769;49.304;8.428;2022-10-20T20:40:03;14.90;99.90
46037;DHT22;31769;49.304;8.428;2022-10-20T20:43:04;14.80;99.90
46037;DHT22;31769;49.304;8.428;2022-10-20T20:46:07;14.90;99.90
46037;DHT22;31769;49.304;8.428;2022-10-20T20:49:08;14.90;99.90
46037;DHT22;31769;49.304;8.428;2022-10-20T20:52:08;14.90;99.90
46037;DHT22;31769;49.304;8.428;2022-10-20T20:55:09;14.90;99.90
46037;DHT22;31769;49.304;8.428;2022-10-20T20:58:10;14.90;99.90
46037;DHT22;31769;49.304;8.428;2022-10-20T21:01:16;14.90;99.90
46037;DHT22;31769;49.304;8.428;2022-10-20T21:04:17;15.00;99.90
46037;DHT22;31769;49.304;8.428;2022-10-20T21:07:18;15.00;99.90
46037;DHT22;31769;49.304;8.428;2022-10-20T21:10:18;15.00;99.90
46037;DHT22;31769;49.304;8.428;2022-10-20T21:13:19;15.10;99.90
46037;DHT22;31769;49.304;8.428;2022-10-20T21:16:23;15.00;99.90
